sensor_id;sensor_type;location;lat;lon;timestamp;P1;durP1;ratioP1;P2;durP2;ratioP2
67227;SDS011;54139;42.616;23.748;2023-04-01T00:01:20;11.65;;;5.00;;
67227;SDS011;54139;42.616;23.748;2023-04-01T00:03:45;12.57;;;4.93;;
67227;SDS011;54139;42.616;23.748;2023-04-01T00:06:14;6.78;;;5.03;;
67227;SDS011;54139;42.616;23.748;2023-04-01T00:08:40;12.73;;;5.03;;
67227;SDS011;54139;42.616;23.748;2023-04-01T00:11:05;8.63;;;4.70;;
67227;SDS011;54139;42.616;23.748;2023-04-01T00:13:31;9.10;;;4.97;;
67227;SDS011;54139;42.616;23.748;2023-04-01T00:15:56;7.30;;;5.13;;
67227;SDS011;54139;42.616;23.748;2023-04-01T00:18:23;8.38;;;6.65;;
67227;SDS011;54139;42.616;23.748;2023-04-01T00:20:49;7.47;;;5.72;;
67227;SDS011;54139;42.616;23.748;2023-04-01T00:23:15;8.65;;;6.25;;
67227;SDS011;54139;42.616;23.748;2023-04-01T00:25:41;6.30;;;5.32;;
67227;SDS011;54139;42.616;23.748;2023-04-01T00:28:06;8.15;;;7.07;;
67227;SDS011;54139;42.616;23.748;2023-04-01T00:30:32;203.77;;;72.35;;
67227;SDS011;54139;42.616;23.748;2023-04-01T00:32:57;341.52;;;116.55;;
67227;SDS011;54139;42.616;23.748;2023-04-01T00:35:22;143.57;;;53.88;;
67227;SDS011;54139;42.616;23.748;2023-04-01T00:37:48;14.23;;;6.30;;
67227;SDS011;54139;42.616;23.748;2023-04-01T00:40:27;11.60;;;6.07;;
67227;SDS011;54139;42.616;23.748;2023-04-01T00:42:53;24.27;;;10.15;;
67227;SDS011;54139;42.616;23.748;2023-04-01T00:45:29;9.32;;;5.07;;
67227;SDS011;54139;42.616;23.748;2023-04-01T00:47:55;20.30;;;9.98;;
67227;SDS011;54139;42.616;23.748;2023-04-01T00:50:21;11.35;;;6.57;;
67227;SDS011;54139;42.616;23.748;2023-04-01T00:52:47;9.27;;;5.40;;
67227;SDS011;54139;42.616;23.748;2023-04-01T00:55:12;10.48;;;4.40;;
67227;SDS011;54139;42.616;23.748;2023-04-01T00:57:39;5.78;;;3.83;;
67227;SDS011;54139;42.616;23.748;2023-04-01T01:00:09;9.02;;;3.90;;
67227;SDS011;54139;42.616;23.748;2023-04-01T01:02:35;9.32;;;3.90;;
67227;SDS011;54139;42.616;23.748;2023-04-01T01:05:00;6.32;;;4.35;;
67227;SDS011;54139;42.616;23.748;2023-04-01T01:07:38;6.20;;;4.03;;
67227;SDS011;54139;42.616;23.748;2023-04-01T01:10:17;11.20;;;4.47;;
67227;SDS011;54139;42.616;23.748;2023-04-01T01:12:45;9.13;;;4.20;;
67227;SDS011;54139;42.616;23.748;2023-04-01T01:22:36;5.57;;;4.65;;
67227;SDS011;54139;42.616;23.748;2023-04-01T01:25:25;7.78;;;4.32;;
67227;SDS011;54139;42.616;23.748;2023-04-01T01:28:10;7.30;;;4.20;;
67227;SDS011;54139;42.616;23.748;2023-04-01T01:30:57;6.18;;;4.00;;
67227;SDS011;54139;42.616;23.748;2023-04-01T01:33:29;6.40;;;4.03;;
67227;SDS011;54139;42.616;23.748;2023-04-01T01:35:59;6.60;;;4.38;;
67227;SDS011;54139;42.616;23.748;2023-04-01T01:38:27;7.55;;;4.68;;
67227;SDS011;54139;42.616;23.748;2023-04-01T01:40:54;6.03;;;4.18;;
67227;SDS011;54139;42.616;23.748;2023-04-01T01:43:23;5.53;;;4.00;;
67227;SDS011;54139;42.616;23.748;2023-04-01T01:45:50;4.88;;;4.03;;
67227;SDS011;54139;42.616;23.748;2023-04-01T01:48:17;6.45;;;3.88;;
67227;SDS011;54139;42.616;23.748;2023-04-01T01:50:43;6.35;;;4.30;;
67227;SDS011;54139;42.616;23.748;2023-04-01T01:53:11;7.50;;;4.07;;
67227;SDS011;54139;42.616;23.748;2023-04-01T01:55:38;4.60;;;3.67;;
67227;SDS011;54139;42.616;23.748;2023-04-01T01:58:05;9.93;;;3.90;;
67227;SDS011;54139;42.616;23.748;2023-04-01T02:00:34;6.30;;;3.80;;
67227;SDS011;54139;42.616;23.748;2023-04-01T02:03:00;6.22;;;3.38;;
67227;SDS011;54139;42.616;23.748;2023-04-01T02:05:26;8.95;;;3.85;;
67227;SDS011;54139;42.616;23.748;2023-04-01T02:08:01;5.25;;;3.75;;
67227;SDS011;54139;42.616;23.748;2023-04-01T02:10:28;7.88;;;3.92;;
67227;SDS011;54139;42.616;23.748;2023-04-01T02:12:57;6.47;;;3.10;;
67227;SDS011;54139;42.616;23.748;2023-04-01T02:15:23;6.53;;;3.72;;
67227;SDS011;54139;42.616;23.748;2023-04-01T02:17:51;8.10;;;2.90;;
67227;SDS011;54139;42.616;23.748;2023-04-01T02:20:20;5.38;;;3.00;;
67227;SDS011;54139;42.616;23.748;2023-04-01T02:22:48;9.13;;;2.60;;
67227;SDS011;54139;42.616;23.748;2023-04-01T02:25:15;8.70;;;4.00;;
67227;SDS011;54139;42.616;23.748;2023-04-01T02:27:41;5.32;;;3.03;;
67227;SDS011;54139;42.616;23.748;2023-04-01T02:30:07;7.97;;;3.92;;
67227;SDS011;54139;42.616;23.748;2023-04-01T02:32:33;4.97;;;3.47;;
67227;SDS011;54139;42.616;23.748;2023-04-01T02:34:58;5.32;;;3.40;;
67227;SDS011;54139;42.616;23.748;2023-04-01T02:37:28;5.63;;;3.22;;
67227;SDS011;54139;42.616;23.748;2023-04-01T02:39:53;7.82;;;3.35;;
67227;SDS011;54139;42.616;23.748;2023-04-01T02:42:18;4.18;;;3.08;;
67227;SDS011;54139;42.616;23.748;2023-04-01T02:44:44;4.80;;;3.22;;
67227;SDS011;54139;42.616;23.748;2023-04-01T02:47:09;7.53;;;3.45;;
67227;SDS011;54139;42.616;23.748;2023-04-01T02:49:35;3.38;;;2.65;;
67227;SDS011;54139;42.616;23.748;2023-04-01T02:52:00;6.68;;;3.55;;
67227;SDS011;54139;42.616;23.748;2023-04-01T02:54:25;6.80;;;3.47;;
67227;SDS011;54139;42.616;23.748;2023-04-01T02:56:50;5.80;;;3.47;;
67227;SDS011;54139;42.616;23.748;2023-04-01T02:59:16;5.70;;;3.33;;
67227;SDS011;54139;42.616;23.748;2023-04-01T03:01:41;6.30;;;3.47;;
67227;SDS011;54139;42.616;23.748;2023-04-01T03:04:06;5.55;;;3.28;;
67227;SDS011;54139;42.616;23.748;2023-04-01T03:06:32;6.35;;;3.15;;
67227;SDS011;54139;42.616;23.748;2023-04-01T03:08:57;5.97;;;2.58;;
67227;SDS011;54139;42.616;23.748;2023-04-01T03:11:22;5.18;;;2.58;;
67227;SDS011;54139;42.616;23.748;2023-04-01T03:13:48;5.28;;;2.15;;
67227;SDS011;54139;42.616;23.748;2023-04-01T03:16:13;3.97;;;2.10;;
67227;SDS011;54139;42.616;23.748;2023-04-01T03:18:39;11.05;;;2.30;;
67227;SDS011;54139;42.616;23.748;2023-04-01T03:21:15;2.35;;;1.80;;
67227;SDS011;54139;42.616;23.748;2023-04-01T03:23:40;2.83;;;1.70;;
67227;SDS011;54139;42.616;23.748;2023-04-01T03:26:06;3.75;;;2.63;;
67227;SDS011;54139;42.616;23.748;2023-04-01T03:28:31;5.93;;;2.23;;
67227;SDS011;54139;42.616;23.748;2023-04-01T03:30:56;3.87;;;2.30;;
67227;SDS011;54139;42.616;23.748;2023-04-01T03:33:21;3.28;;;2.30;;
67227;SDS011;54139;42.616;23.748;2023-04-01T03:35:47;4.32;;;2.92;;
67227;SDS011;54139;42.616;23.748;2023-04-01T03:38:12;9.00;;;3.23;;
67227;SDS011;54139;42.616;23.748;2023-04-01T03:40:37;5.95;;;3.17;;
67227;SDS011;54139;42.616;23.748;2023-04-01T03:43:06;3.58;;;2.58;;
67227;SDS011;54139;42.616;23.748;2023-04-01T03:45:34;7.32;;;3.00;;
67227;SDS011;54139;42.616;23.748;2023-04-01T03:48:00;8.25;;;3.25;;
67227;SDS011;54139;42.616;23.748;2023-04-01T03:50:25;4.30;;;2.88;;
67227;SDS011;54139;42.616;23.748;2023-04-01T03:52:51;7.05;;;3.05;;
67227;SDS011;54139;42.616;23.748;2023-04-01T03:55:16;7.55;;;3.30;;
67227;SDS011;54139;42.616;23.748;2023-04-01T03:57:43;5.57;;;2.85;;
67227;SDS011;54139;42.616;23.748;2023-04-01T04:00:08;5.78;;;3.55;;
67227;SDS011;54139;42.616;23.748;2023-04-01T04:02:34;10.95;;;3.75;;
67227;SDS011;54139;42.616;23.748;2023-04-01T04:05:00;6.35;;;4.05;;
67227;SDS011;54139;42.616;23.748;2023-04-01T04:07:25;6.10;;;4.15;;
67227;SDS011;54139;42.616;23.748;2023-04-01T04:09:51;6.45;;;5.10;;
67227;SDS011;54139;42.616;23.748;2023-04-01T04:12:16;15.25;;;8.45;;
67227;SDS011;54139;42.616;23.748;2023-04-01T04:14:41;14.57;;;9.73;;
67227;SDS011;54139;42.616;23.748;2023-04-01T04:17:06;8.27;;;5.82;;
67227;SDS011;54139;42.616;23.748;2023-04-01T04:19:33;9.95;;;5.03;;
67227;SDS011;54139;42.616;23.748;2023-04-01T04:21:59;5.78;;;4.60;;
67227;SDS011;54139;42.616;23.748;2023-04-01T04:24:26;5.95;;;5.35;;
67227;SDS011;54139;42.616;23.748;2023-04-01T04:26:52;6.85;;;6.07;;
67227;SDS011;54139;42.616;23.748;2023-04-01T04:29:17;8.32;;;4.75;;
67227;SDS011;54139;42.616;23.748;2023-04-01T04:31:42;6.63;;;4.67;;
67227;SDS011;54139;42.616;23.748;2023-04-01T04:34:08;11.73;;;4.95;;
67227;SDS011;54139;42.616;23.748;2023-04-01T04:36:33;6.60;;;3.95;;
67227;SDS011;54139;42.616;23.748;2023-04-01T04:38:59;7.25;;;4.47;;
67227;SDS011;54139;42.616;23.748;2023-04-01T04:41:28;11.98;;;4.93;;
67227;SDS011;54139;42.616;23.748;2023-04-01T04:43:54;6.60;;;3.90;;
67227;SDS011;54139;42.616;23.748;2023-04-01T04:46:20;8.43;;;4.25;;
67227;SDS011;54139;42.616;23.748;2023-04-01T04:48:45;9.80;;;4.43;;
67227;SDS011;54139;42.616;23.748;2023-04-01T04:51:15;8.68;;;4.22;;
67227;SDS011;54139;42.616;23.748;2023-04-01T04:56:05;4.57;;;3.58;;
67227;SDS011;54139;42.616;23.748;2023-04-01T04:58:31;9.40;;;4.47;;
67227;SDS011;54139;42.616;23.748;2023-04-01T05:00:56;5.40;;;4.10;;
67227;SDS011;54139;42.616;23.748;2023-04-01T05:03:22;5.20;;;4.25;;
67227;SDS011;54139;42.616;23.748;2023-04-01T05:05:48;5.85;;;4.35;;
67227;SDS011;54139;42.616;23.748;2023-04-01T05:08:14;5.40;;;4.10;;
67227;SDS011;54139;42.616;23.748;2023-04-01T05:10:39;7.88;;;4.40;;
67227;SDS011;54139;42.616;23.748;2023-04-01T05:13:04;4.93;;;3.70;;
67227;SDS011;54139;42.616;23.748;2023-04-01T05:15:30;6.80;;;4.57;;
67227;SDS011;54139;42.616;23.748;2023-04-01T05:17:55;9.32;;;4.90;;
67227;SDS011;54139;42.616;23.748;2023-04-01T05:20:20;5.65;;;4.70;;
67227;SDS011;54139;42.616;23.748;2023-04-01T05:22:45;7.07;;;4.07;;
67227;SDS011;54139;42.616;23.748;2023-04-01T05:25:11;7.43;;;4.28;;
67227;SDS011;54139;42.616;23.748;2023-04-01T05:27:36;9.55;;;3.88;;
67227;SDS011;54139;42.616;23.748;2023-04-01T05:30:02;4.75;;;3.35;;
67227;SDS011;54139;42.616;23.748;2023-04-01T05:32:27;3.15;;;2.85;;
67227;SDS011;54139;42.616;23.748;2023-04-01T05:34:53;6.78;;;3.13;;
67227;SDS011;54139;42.616;23.748;2023-04-01T05:37:18;6.25;;;3.00;;
67227;SDS011;54139;42.616;23.748;2023-04-01T05:39:44;7.22;;;3.10;;
67227;SDS011;54139;42.616;23.748;2023-04-01T05:42:09;4.22;;;2.42;;
67227;SDS011;54139;42.616;23.748;2023-04-01T05:44:35;6.20;;;2.80;;
67227;SDS011;54139;42.616;23.748;2023-04-01T05:47:00;5.13;;;2.50;;
67227;SDS011;54139;42.616;23.748;2023-04-01T05:49:25;8.70;;;2.80;;
67227;SDS011;54139;42.616;23.748;2023-04-01T05:51:50;4.35;;;3.20;;
67227;SDS011;54139;42.616;23.748;2023-04-01T05:54:16;2.85;;;2.53;;
67227;SDS011;54139;42.616;23.748;2023-04-01T05:56:41;4.65;;;2.72;;
67227;SDS011;54139;42.616;23.748;2023-04-01T05:59:09;6.53;;;2.97;;
67227;SDS011;54139;42.616;23.748;2023-04-01T06:01:35;5.53;;;2.80;;
67227;SDS011;54139;42.616;23.748;2023-04-01T06:04:00;6.38;;;3.25;;
67227;SDS011;54139;42.616;23.748;2023-04-01T06:06:26;7.23;;;3.27;;
67227;SDS011;54139;42.616;23.748;2023-04-01T06:08:52;6.20;;;3.40;;
67227;SDS011;54139;42.616;23.748;2023-04-01T06:14:06;6.70;;;3.30;;
67227;SDS011;54139;42.616;23.748;2023-04-01T06:19:03;7.95;;;3.17;;
67227;SDS011;54139;42.616;23.748;2023-04-01T06:39:33;4.40;;;2.53;;
67227;SDS011;54139;42.616;23.748;2023-04-01T06:47:04;4.05;;;2.97;;
67227;SDS011;54139;42.616;23.748;2023-04-01T06:55:30;5.65;;;3.25;;
67227;SDS011;54139;42.616;23.748;2023-04-01T06:57:41;6.15;;;3.22;;
67227;SDS011;54139;42.616;23.748;2023-04-01T07:00:14;6.43;;;2.85;;
67227;SDS011;54139;42.616;23.748;2023-04-01T07:02:48;3.35;;;2.53;;
67227;SDS011;54139;42.616;23.748;2023-04-01T07:05:18;8.20;;;2.47;;
67227;SDS011;54139;42.616;23.748;2023-04-01T07:07:45;4.43;;;2.67;;
67227;SDS011;54139;42.616;23.748;2023-04-01T07:10:58;5.63;;;3.20;;
67227;SDS011;54139;42.616;23.748;2023-04-01T07:12:58;4.53;;;2.97;;
67227;SDS011;54139;42.616;23.748;2023-04-01T07:15:30;8.87;;;3.17;;
67227;SDS011;54139;42.616;23.748;2023-04-01T07:17:58;3.97;;;2.50;;
67227;SDS011;54139;42.616;23.748;2023-04-01T07:20:28;4.82;;;2.67;;
67227;SDS011;54139;42.616;23.748;2023-04-01T07:22:56;5.25;;;2.83;;
67227;SDS011;54139;42.616;23.748;2023-04-01T07:25:30;5.75;;;3.05;;
67227;SDS011;54139;42.616;23.748;2023-04-01T07:27:57;8.55;;;3.08;;
67227;SDS011;54139;42.616;23.748;2023-04-01T07:30:25;4.78;;;2.88;;
67227;SDS011;54139;42.616;23.748;2023-04-01T07:33:36;9.05;;;3.10;;
67227;SDS011;54139;42.616;23.748;2023-04-01T07:41:01;3.60;;;2.40;;
67227;SDS011;54139;42.616;23.748;2023-04-01T07:53:22;4.88;;;2.55;;
67227;SDS011;54139;42.616;23.748;2023-04-01T07:55:55;4.65;;;2.83;;
67227;SDS011;54139;42.616;23.748;2023-04-01T07:58:35;5.40;;;2.90;;
67227;SDS011;54139;42.616;23.748;2023-04-01T08:07:21;5.05;;;3.40;;
67227;SDS011;54139;42.616;23.748;2023-04-01T08:11:49;5.45;;;3.30;;
67227;SDS011;54139;42.616;23.748;2023-04-01T08:14:21;5.22;;;3.20;;
67227;SDS011;54139;42.616;23.748;2023-04-01T08:19:21;7.55;;;3.35;;
67227;SDS011;54139;42.616;23.748;2023-04-01T08:21:51;6.40;;;2.85;;
67227;SDS011;54139;42.616;23.748;2023-04-01T08:24:20;6.82;;;2.72;;
67227;SDS011;54139;42.616;23.748;2023-04-01T08:26:49;4.68;;;2.42;;
67227;SDS011;54139;42.616;23.748;2023-04-01T08:29:17;6.22;;;2.63;;
67227;SDS011;54139;42.616;23.748;2023-04-01T08:31:48;10.13;;;2.78;;
67227;SDS011;54139;42.616;23.748;2023-04-01T08:34:18;3.55;;;2.20;;
67227;SDS011;54139;42.616;23.748;2023-04-01T08:37:08;5.82;;;2.72;;
67227;SDS011;54139;42.616;23.748;2023-04-01T08:39:37;6.95;;;2.90;;
67227;SDS011;54139;42.616;23.748;2023-04-01T08:47:20;5.10;;;2.55;;
67227;SDS011;54139;42.616;23.748;2023-04-01T09:02:26;3.90;;;2.58;;
67227;SDS011;54139;42.616;23.748;2023-04-01T09:07:39;4.40;;;3.05;;
67227;SDS011;54139;42.616;23.748;2023-04-01T09:22:30;10.73;;;2.60;;
67227;SDS011;54139;42.616;23.748;2023-04-01T09:30:34;4.20;;;2.38;;
67227;SDS011;54139;42.616;23.748;2023-04-01T09:38:28;4.18;;;2.35;;
67227;SDS011;54139;42.616;23.748;2023-04-01T09:40:55;9.43;;;2.53;;
67227;SDS011;54139;42.616;23.748;2023-04-01T09:43:27;13.20;;;2.60;;
67227;SDS011;54139;42.616;23.748;2023-04-01T09:45:57;4.18;;;2.28;;
67227;SDS011;54139;42.616;23.748;2023-04-01T10:11:32;4.40;;;2.30;;
67227;SDS011;54139;42.616;23.748;2023-04-01T10:36:57;8.68;;;2.58;;
67227;SDS011;54139;42.616;23.748;2023-04-01T10:49:58;4.57;;;2.28;;
67227;SDS011;54139;42.616;23.748;2023-04-01T10:57:56;7.13;;;2.13;;
67227;SDS011;54139;42.616;23.748;2023-04-01T11:05:27;3.30;;;2.13;;
67227;SDS011;54139;42.616;23.748;2023-04-01T11:15:20;3.87;;;2.17;;
67227;SDS011;54139;42.616;23.748;2023-04-01T11:20:40;3.80;;;2.38;;
67227;SDS011;54139;42.616;23.748;2023-04-01T11:26:23;6.53;;;2.45;;
67227;SDS011;54139;42.616;23.748;2023-04-01T11:28:59;4.20;;;2.67;;
67227;SDS011;54139;42.616;23.748;2023-04-01T11:36:40;6.00;;;2.63;;
67227;SDS011;54139;42.616;23.748;2023-04-01T11:44:25;8.45;;;2.55;;
67227;SDS011;54139;42.616;23.748;2023-04-01T12:02:53;4.97;;;2.45;;
67227;SDS011;54139;42.616;23.748;2023-04-01T12:10:17;11.52;;;3.55;;
67227;SDS011;54139;42.616;23.748;2023-04-01T12:18:14;11.45;;;3.22;;
67227;SDS011;54139;42.616;23.748;2023-04-01T12:20:50;4.57;;;3.00;;
67227;SDS011;54139;42.616;23.748;2023-04-01T12:26:00;9.45;;;3.38;;
67227;SDS011;54139;42.616;23.748;2023-04-01T12:39:00;9.73;;;3.60;;
67227;SDS011;54139;42.616;23.748;2023-04-01T13:05:47;8.48;;;3.03;;
67227;SDS011;54139;42.616;23.748;2023-04-01T13:54:42;7.63;;;3.95;;
67227;SDS011;54139;42.616;23.748;2023-04-01T14:17:59;6.35;;;3.35;;
67227;SDS011;54139;42.616;23.748;2023-04-01T14:20:32;3.88;;;3.05;;
67227;SDS011;54139;42.616;23.748;2023-04-01T14:30:35;8.63;;;3.60;;
67227;SDS011;54139;42.616;23.748;2023-04-01T14:41:00;5.15;;;3.38;;
67227;SDS011;54139;42.616;23.748;2023-04-01T14:46:32;4.82;;;2.60;;
67227;SDS011;54139;42.616;23.748;2023-04-01T14:49:42;7.25;;;3.13;;
67227;SDS011;54139;42.616;23.748;2023-04-01T14:51:48;4.68;;;2.92;;
67227;SDS011;54139;42.616;23.748;2023-04-01T15:17:28;2.83;;;2.30;;
67227;SDS011;54139;42.616;23.748;2023-04-01T16:14:04;3.55;;;3.13;;
67227;SDS011;54139;42.616;23.748;2023-04-01T16:21:49;7.07;;;1.80;;
67227;SDS011;54139;42.616;23.748;2023-04-01T16:27:02;7.45;;;4.22;;
67227;SDS011;54139;42.616;23.748;2023-04-01T16:29:35;14.43;;;7.60;;
67227;SDS011;54139;42.616;23.748;2023-04-01T16:34:38;3.13;;;2.92;;
67227;SDS011;54139;42.616;23.748;2023-04-01T16:45:34;7.13;;;4.75;;
67227;SDS011;54139;42.616;23.748;2023-04-01T16:48:22;7.82;;;4.95;;
67227;SDS011;54139;42.616;23.748;2023-04-01T16:50:59;6.63;;;6.03;;
67227;SDS011;54139;42.616;23.748;2023-04-01T16:56:23;8.88;;;6.20;;
67227;SDS011;54139;42.616;23.748;2023-04-01T17:01:16;7.32;;;6.10;;
67227;SDS011;54139;42.616;23.748;2023-04-01T17:03:46;7.05;;;6.45;;
67227;SDS011;54139;42.616;23.748;2023-04-01T17:11:27;6.18;;;5.57;;
67227;SDS011;54139;42.616;23.748;2023-04-01T17:14:05;6.80;;;6.15;;
67227;SDS011;54139;42.616;23.748;2023-04-01T17:29:46;5.67;;;5.27;;
67227;SDS011;54139;42.616;23.748;2023-04-01T17:32:23;4.88;;;4.47;;
67227;SDS011;54139;42.616;23.748;2023-04-01T17:40:29;4.50;;;4.10;;
67227;SDS011;54139;42.616;23.748;2023-04-01T17:43:02;3.88;;;3.50;;
67227;SDS011;54139;42.616;23.748;2023-04-01T17:45:37;3.45;;;2.47;;
67227;SDS011;54139;42.616;23.748;2023-04-01T17:48:42;2.72;;;2.53;;
67227;SDS011;54139;42.616;23.748;2023-04-01T17:51:03;2.80;;;2.60;;
67227;SDS011;54139;42.616;23.748;2023-04-01T17:56:14;2.95;;;2.75;;
67227;SDS011;54139;42.616;23.748;2023-04-01T18:04:30;3.00;;;2.80;;
67227;SDS011;54139;42.616;23.748;2023-04-01T18:17:17;3.28;;;3.08;;
67227;SDS011;54139;42.616;23.748;2023-04-01T18:24:35;3.83;;;3.40;;
67227;SDS011;54139;42.616;23.748;2023-04-01T18:27:15;3.45;;;3.25;;
67227;SDS011;54139;42.616;23.748;2023-04-01T18:35:12;3.15;;;2.95;;
67227;SDS011;54139;42.616;23.748;2023-04-01T18:37:42;3.55;;;3.35;;
67227;SDS011;54139;42.616;23.748;2023-04-01T18:40:23;4.00;;;3.70;;
67227;SDS011;54139;42.616;23.748;2023-04-01T18:45:31;4.22;;;3.72;;
67227;SDS011;54139;42.616;23.748;2023-04-01T18:48:30;4.22;;;3.95;;
67227;SDS011;54139;42.616;23.748;2023-04-01T18:50:55;4.45;;;4.20;;
67227;SDS011;54139;42.616;23.748;2023-04-01T18:56:00;5.10;;;4.80;;
67227;SDS011;54139;42.616;23.748;2023-04-01T18:58:34;5.03;;;4.72;;
67227;SDS011;54139;42.616;23.748;2023-04-01T19:09:14;6.38;;;5.88;;
67227;SDS011;54139;42.616;23.748;2023-04-01T19:27:46;9.93;;;9.23;;
67227;SDS011;54139;42.616;23.748;2023-04-01T19:33:05;9.55;;;8.85;;
67227;SDS011;54139;42.616;23.748;2023-04-01T19:38:04;10.15;;;9.25;;
67227;SDS011;54139;42.616;23.748;2023-04-01T19:45:52;6.25;;;5.85;;
67227;SDS011;54139;42.616;23.748;2023-04-01T19:56:20;3.90;;;3.60;;
67227;SDS011;54139;42.616;23.748;2023-04-01T20:01:52;3.30;;;3.10;;
67227;SDS011;54139;42.616;23.748;2023-04-01T20:04:26;3.95;;;3.75;;
67227;SDS011;54139;42.616;23.748;2023-04-01T20:14:53;3.60;;;3.40;;
67227;SDS011;54139;42.616;23.748;2023-04-01T20:17:23;4.70;;;4.40;;
67227;SDS011;54139;42.616;23.748;2023-04-01T20:25:06;5.22;;;4.82;;
67227;SDS011;54139;42.616;23.748;2023-04-01T20:27:37;5.18;;;4.88;;
67227;SDS011;54139;42.616;23.748;2023-04-01T20:32:57;4.28;;;3.97;;
67227;SDS011;54139;42.616;23.748;2023-04-01T20:38:06;4.60;;;3.83;;
67227;SDS011;54139;42.616;23.748;2023-04-01T20:40:50;4.30;;;3.90;;
67227;SDS011;54139;42.616;23.748;2023-04-01T20:46:06;5.05;;;4.65;;
67227;SDS011;54139;42.616;23.748;2023-04-01T21:04:00;5.15;;;4.75;;
67227;SDS011;54139;42.616;23.748;2023-04-01T21:16:55;7.15;;;6.55;;
67227;SDS011;54139;42.616;23.748;2023-04-01T21:25:01;5.65;;;5.15;;
67227;SDS011;54139;42.616;23.748;2023-04-01T21:30:03;6.45;;;5.95;;
67227;SDS011;54139;42.616;23.748;2023-04-01T21:37:44;4.80;;;4.40;;
67227;SDS011;54139;42.616;23.748;2023-04-01T21:40:24;5.85;;;5.40;;
67227;SDS011;54139;42.616;23.748;2023-04-01T21:52:55;6.95;;;6.35;;
67227;SDS011;54139;42.616;23.748;2023-04-01T21:58:28;6.40;;;5.88;;
67227;SDS011;54139;42.616;23.748;2023-04-01T22:01:09;5.32;;;4.85;;
67227;SDS011;54139;42.616;23.748;2023-04-01T22:06:19;3.13;;;2.83;;
67227;SDS011;54139;42.616;23.748;2023-04-01T22:08:56;3.22;;;2.97;;
67227;SDS011;54139;42.616;23.748;2023-04-01T22:13:58;4.68;;;2.72;;
67227;SDS011;54139;42.616;23.748;2023-04-01T22:19:20;3.88;;;3.58;;
67227;SDS011;54139;42.616;23.748;2023-04-01T22:22:01;4.10;;;3.80;;
67227;SDS011;54139;42.616;23.748;2023-04-01T22:24:32;4.47;;;4.18;;
67227;SDS011;54139;42.616;23.748;2023-04-01T22:30:17;4.07;;;3.78;;
67227;SDS011;54139;42.616;23.748;2023-04-01T22:32:42;4.97;;;4.57;;
67227;SDS011;54139;42.616;23.748;2023-04-01T22:50:32;3.22;;;3.03;;
67227;SDS011;54139;42.616;23.748;2023-04-01T22:53:24;4.37;;;3.60;;
67227;SDS011;54139;42.616;23.748;2023-04-01T22:55:46;3.55;;;3.25;;
67227;SDS011;54139;42.616;23.748;2023-04-01T22:58:18;3.97;;;3.63;;
67227;SDS011;54139;42.616;23.748;2023-04-01T23:00:47;4.18;;;3.88;;
67227;SDS011;54139;42.616;23.748;2023-04-01T23:03:36;3.80;;;3.50;;
67227;SDS011;54139;42.616;23.748;2023-04-01T23:06:06;4.20;;;3.80;;
67227;SDS011;54139;42.616;23.748;2023-04-01T23:16:43;4.38;;;4.07;;
67227;SDS011;54139;42.616;23.748;2023-04-01T23:19:30;3.95;;;3.65;;
67227;SDS011;54139;42.616;23.748;2023-04-01T23:24:30;3.55;;;3.25;;
67227;SDS011;54139;42.616;23.748;2023-04-01T23:27:10;3.92;;;3.53;;
67227;SDS011;54139;42.616;23.748;2023-04-01T23:29:37;5.18;;;4.75;;
67227;SDS011;54139;42.616;23.748;2023-04-01T23:32:05;5.65;;;5.15;;
67227;SDS011;54139;42.616;23.748;2023-04-01T23:34:33;4.88;;;4.47;;
67227;SDS011;54139;42.616;23.748;2023-04-01T23:37:08;4.75;;;4.35;;
67227;SDS011;54139;42.616;23.748;2023-04-01T23:39:39;4.45;;;4.05;;
67227;SDS011;54139;42.616;23.748;2023-04-01T23:44:31;5.10;;;4.55;;
67227;SDS011;54139;42.616;23.748;2023-04-01T23:46:57;27.73;;;23.70;;
67227;SDS011;54139;42.616;23.748;2023-04-01T23:49:25;8.32;;;7.45;;
67227;SDS011;54139;42.616;23.748;2023-04-01T23:54:19;4.57;;;4.07;;
67227;SDS011;54139;42.616;23.748;2023-04-01T23:56:51;5.50;;;5.10;;
67227;SDS011;54139;42.616;23.748;2023-04-01T23:59:17;4.05;;;3.60;;
